sensor_id;sensor_type;location;lat;lon;timestamp;temperature;humidity
19232;DHT22;9750;48.730;10.294;2022-08-01T00:01:57;22.00;71.00
19232;DHT22;9750;48.730;10.294;2022-08-01T00:04:24;21.90;71.00
19232;DHT22;9750;48.730;10.294;2022-08-01T00:06:52;21.90;71.30
19232;DHT22;9750;48.730;10.294;2022-08-01T00:09:19;21.90;71.70
19232;DHT22;9750;48.730;10.294;2022-08-01T00:11:46;21.90;71.80
19232;DHT22;9750;48.730;10.294;2022-08-01T00:14:16;21.80;72.10
19232;DHT22;9750;48.730;10.294;2022-08-01T00:16:43;21.80;72.00
19232;DHT22;9750;48.730;10.294;2022-08-01T00:19:11;21.80;72.10
19232;DHT22;9750;48.730;10.294;2022-08-01T00:21:38;21.70;72.20
19232;DHT22;9750;48.730;10.294;2022-08-01T00:24:06;21.70;72.80
19232;DHT22;9750;48.730;10.294;2022-08-01T00:26:33;21.70;72.90
19232;DHT22;9750;48.730;10.294;2022-08-01T00:29:01;21.70;72.60
19232;DHT22;9750;48.730;10.294;2022-08-01T00:31:29;21.70;72.60
19232;DHT22;9750;48.730;10.294;2022-08-01T00:33:57;21.70;72.80
19232;DHT22;9750;48.730;10.294;2022-08-01T00:36:24;21.60;72.90
19232;DHT22;9750;48.730;10.294;2022-08-01T00:38:51;21.60;72.90
19232;DHT22;9750;48.730;10.294;2022-08-01T00:41:19;21.60;73.20
19232;DHT22;9750;48.730;10.294;2022-08-01T00:43:46;21.60;73.30
19232;DHT22;9750;48.730;10.294;2022-08-01T00:46:14;21.60;73.30
19232;DHT22;9750;48.730;10.294;2022-08-01T00:48:42;21.50;73.30
19232;DHT22;9750;48.730;10.294;2022-08-01T00:51:10;21.50;73.60
19232;DHT22;9750;48.730;10.294;2022-08-01T00:53:39;21.50;73.70
19232;DHT22;9750;48.730;10.294;2022-08-01T00:56:07;21.50;73.90
19232;DHT22;9750;48.730;10.294;2022-08-01T00:58:34;21.40;74.00
19232;DHT22;9750;48.730;10.294;2022-08-01T01:01:01;21.40;74.40
19232;DHT22;9750;48.730;10.294;2022-08-01T01:03:29;21.30;74.50
19232;DHT22;9750;48.730;10.294;2022-08-01T01:06:08;21.30;74.70
19232;DHT22;9750;48.730;10.294;2022-08-01T01:08:43;21.30;74.70
19232;DHT22;9750;48.730;10.294;2022-08-01T01:11:16;21.30;74.70
19232;DHT22;9750;48.730;10.294;2022-08-01T01:13:53;21.30;75.00
19232;DHT22;9750;48.730;10.294;2022-08-01T01:16:23;21.20;74.80
19232;DHT22;9750;48.730;10.294;2022-08-01T01:18:54;21.20;75.20
19232;DHT22;9750;48.730;10.294;2022-08-01T01:21:46;21.20;75.30
19232;DHT22;9750;48.730;10.294;2022-08-01T01:24:21;21.20;75.40
19232;DHT22;9750;48.730;10.294;2022-08-01T01:26:57;21.20;75.30
19232;DHT22;9750;48.730;10.294;2022-08-01T01:29:30;21.10;75.50
19232;DHT22;9750;48.730;10.294;2022-08-01T01:32:04;21.10;75.70
19232;DHT22;9750;48.730;10.294;2022-08-01T01:34:35;21.10;75.90
19232;DHT22;9750;48.730;10.294;2022-08-01T01:37:06;21.10;75.70
19232;DHT22;9750;48.730;10.294;2022-08-01T01:39:35;21.10;75.60
19232;DHT22;9750;48.730;10.294;2022-08-01T01:42:05;21.10;76.10
19232;DHT22;9750;48.730;10.294;2022-08-01T01:44:36;21.00;76.10
19232;DHT22;9750;48.730;10.294;2022-08-01T01:47:05;21.10;76.10
19232;DHT22;9750;48.730;10.294;2022-08-01T01:49:33;21.00;76.00
19232;DHT22;9750;48.730;10.294;2022-08-01T01:52:02;21.00;76.20
19232;DHT22;9750;48.730;10.294;2022-08-01T01:54:32;21.00;76.30
19232;DHT22;9750;48.730;10.294;2022-08-01T01:57:02;21.00;76.40
19232;DHT22;9750;48.730;10.294;2022-08-01T01:59:32;21.00;76.60
19232;DHT22;9750;48.730;10.294;2022-08-01T02:02:04;21.00;76.90
19232;DHT22;9750;48.730;10.294;2022-08-01T02:04:33;20.90;76.90
19232;DHT22;9750;48.730;10.294;2022-08-01T02:07:02;20.90;77.00
19232;DHT22;9750;48.730;10.294;2022-08-01T02:09:31;20.90;77.20
19232;DHT22;9750;48.730;10.294;2022-08-01T02:11:59;20.90;77.20
19232;DHT22;9750;48.730;10.294;2022-08-01T02:14:28;20.90;77.30
19232;DHT22;9750;48.730;10.294;2022-08-01T02:16:57;20.90;77.70
19232;DHT22;9750;48.730;10.294;2022-08-01T02:19:27;20.90;77.70
19232;DHT22;9750;48.730;10.294;2022-08-01T02:21:57;20.80;77.80
19232;DHT22;9750;48.730;10.294;2022-08-01T02:24:31;20.80;78.00
19232;DHT22;9750;48.730;10.294;2022-08-01T02:27:06;20.80;78.20
19232;DHT22;9750;48.730;10.294;2022-08-01T02:29:41;20.70;78.20
19232;DHT22;9750;48.730;10.294;2022-08-01T02:32:13;20.70;78.20
19232;DHT22;9750;48.730;10.294;2022-08-01T02:34:45;20.70;78.60
19232;DHT22;9750;48.730;10.294;2022-08-01T02:37:13;20.70;78.50
19232;DHT22;9750;48.730;10.294;2022-08-01T02:39:42;20.70;78.70
19232;DHT22;9750;48.730;10.294;2022-08-01T02:42:29;20.70;78.70
19232;DHT22;9750;48.730;10.294;2022-08-01T02:44:57;20.70;78.90
19232;DHT22;9750;48.730;10.294;2022-08-01T02:47:26;20.70;78.80
19232;DHT22;9750;48.730;10.294;2022-08-01T02:49:57;20.70;79.20
19232;DHT22;9750;48.730;10.294;2022-08-01T02:52:26;20.60;79.10
19232;DHT22;9750;48.730;10.294;2022-08-01T02:54:57;20.70;79.10
19232;DHT22;9750;48.730;10.294;2022-08-01T02:57:25;20.70;79.50
19232;DHT22;9750;48.730;10.294;2022-08-01T02:59:54;20.60;79.50
19232;DHT22;9750;48.730;10.294;2022-08-01T03:02:23;20.60;79.50
19232;DHT22;9750;48.730;10.294;2022-08-01T03:04:52;20.60;79.70
19232;DHT22;9750;48.730;10.294;2022-08-01T03:07:22;20.60;79.80
19232;DHT22;9750;48.730;10.294;2022-08-01T03:09:50;20.60;80.10
19232;DHT22;9750;48.730;10.294;2022-08-01T03:12:21;20.60;80.20
19232;DHT22;9750;48.730;10.294;2022-08-01T03:14:52;20.60;80.50
19232;DHT22;9750;48.730;10.294;2022-08-01T03:17:22;20.50;80.30
19232;DHT22;9750;48.730;10.294;2022-08-01T03:19:51;20.50;80.20
19232;DHT22;9750;48.730;10.294;2022-08-01T03:22:22;20.50;80.60
19232;DHT22;9750;48.730;10.294;2022-08-01T03:24:52;20.50;80.60
19232;DHT22;9750;48.730;10.294;2022-08-01T03:27:21;20.50;80.80
19232;DHT22;9750;48.730;10.294;2022-08-01T03:29:51;20.50;80.90
19232;DHT22;9750;48.730;10.294;2022-08-01T03:32:19;20.40;81.00
19232;DHT22;9750;48.730;10.294;2022-08-01T03:34:47;20.40;82.00
19232;DHT22;9750;48.730;10.294;2022-08-01T03:37:21;20.40;81.40
19232;DHT22;9750;48.730;10.294;2022-08-01T03:39:57;20.40;81.60
19232;DHT22;9750;48.730;10.294;2022-08-01T03:42:31;20.40;81.50
19232;DHT22;9750;48.730;10.294;2022-08-01T03:45:03;20.40;81.60
19232;DHT22;9750;48.730;10.294;2022-08-01T03:47:33;20.40;81.90
19232;DHT22;9750;48.730;10.294;2022-08-01T03:50:02;20.40;81.90
19232;DHT22;9750;48.730;10.294;2022-08-01T03:52:32;20.40;82.00
19232;DHT22;9750;48.730;10.294;2022-08-01T03:55:05;20.30;82.10
19232;DHT22;9750;48.730;10.294;2022-08-01T03:57:33;20.30;82.30
19232;DHT22;9750;48.730;10.294;2022-08-01T04:00:02;20.40;82.50
19232;DHT22;9750;48.730;10.294;2022-08-01T04:02:32;20.30;82.70
19232;DHT22;9750;48.730;10.294;2022-08-01T04:05:00;20.30;82.50
19232;DHT22;9750;48.730;10.294;2022-08-01T04:07:29;20.30;82.60
19232;DHT22;9750;48.730;10.294;2022-08-01T04:09:57;20.30;82.80
19232;DHT22;9750;48.730;10.294;2022-08-01T04:12:26;20.40;83.00
19232;DHT22;9750;48.730;10.294;2022-08-01T04:14:53;20.30;83.20
19232;DHT22;9750;48.730;10.294;2022-08-01T04:17:20;20.30;83.20
19232;DHT22;9750;48.730;10.294;2022-08-01T04:19:48;20.40;83.20
19232;DHT22;9750;48.730;10.294;2022-08-01T04:22:15;20.30;83.40
19232;DHT22;9750;48.730;10.294;2022-08-01T04:24:47;20.30;83.40
19232;DHT22;9750;48.730;10.294;2022-08-01T04:27:25;20.40;83.60
19232;DHT22;9750;48.730;10.294;2022-08-01T04:29:58;20.40;83.70
19232;DHT22;9750;48.730;10.294;2022-08-01T04:32:35;20.40;83.70
19232;DHT22;9750;48.730;10.294;2022-08-01T04:35:07;20.40;83.90
19232;DHT22;9750;48.730;10.294;2022-08-01T04:37:36;20.40;84.10
19232;DHT22;9750;48.730;10.294;2022-08-01T04:40:05;20.40;84.20
19232;DHT22;9750;48.730;10.294;2022-08-01T04:42:33;20.40;84.30
19232;DHT22;9750;48.730;10.294;2022-08-01T04:45:02;20.40;84.20
19232;DHT22;9750;48.730;10.294;2022-08-01T04:47:30;20.40;84.60
19232;DHT22;9750;48.730;10.294;2022-08-01T04:49:58;20.40;84.50
19232;DHT22;9750;48.730;10.294;2022-08-01T04:52:33;20.40;84.80
19232;DHT22;9750;48.730;10.294;2022-08-01T04:55:00;20.40;84.90
19232;DHT22;9750;48.730;10.294;2022-08-01T04:57:28;20.40;84.90
19232;DHT22;9750;48.730;10.294;2022-08-01T04:59:56;20.40;85.10
19232;DHT22;9750;48.730;10.294;2022-08-01T05:02:25;20.50;85.00
19232;DHT22;9750;48.730;10.294;2022-08-01T05:04:55;20.50;85.10
19232;DHT22;9750;48.730;10.294;2022-08-01T05:07:22;20.60;84.80
19232;DHT22;9750;48.730;10.294;2022-08-01T05:09:50;20.60;85.00
19232;DHT22;9750;48.730;10.294;2022-08-01T05:12:17;20.60;84.80
19232;DHT22;9750;48.730;10.294;2022-08-01T05:14:45;20.70;85.10
19232;DHT22;9750;48.730;10.294;2022-08-01T05:17:12;20.70;85.10
19232;DHT22;9750;48.730;10.294;2022-08-01T05:19:41;20.70;85.50
19232;DHT22;9750;48.730;10.294;2022-08-01T05:22:34;20.70;85.60
19232;DHT22;9750;48.730;10.294;2022-08-01T05:25:02;20.70;85.50
19232;DHT22;9750;48.730;10.294;2022-08-01T05:27:31;20.80;85.40
19232;DHT22;9750;48.730;10.294;2022-08-01T05:30:04;20.80;85.70
19232;DHT22;9750;48.730;10.294;2022-08-01T05:32:32;20.80;86.30
19232;DHT22;9750;48.730;10.294;2022-08-01T05:35:01;20.70;86.10
19232;DHT22;9750;48.730;10.294;2022-08-01T05:37:28;20.70;86.50
19232;DHT22;9750;48.730;10.294;2022-08-01T05:39:56;20.70;86.70
19232;DHT22;9750;48.730;10.294;2022-08-01T05:42:23;20.70;86.80
19232;DHT22;9750;48.730;10.294;2022-08-01T05:44:50;20.70;87.10
19232;DHT22;9750;48.730;10.294;2022-08-01T05:47:18;20.70;87.40
19232;DHT22;9750;48.730;10.294;2022-08-01T05:49:46;20.70;87.50
19232;DHT22;9750;48.730;10.294;2022-08-01T05:52:14;20.70;87.80
19232;DHT22;9750;48.730;10.294;2022-08-01T05:54:42;20.70;88.10
19232;DHT22;9750;48.730;10.294;2022-08-01T05:57:09;20.70;88.00
19232;DHT22;9750;48.730;10.294;2022-08-01T05:59:37;20.80;88.40
19232;DHT22;9750;48.730;10.294;2022-08-01T06:02:04;20.80;88.20
19232;DHT22;9750;48.730;10.294;2022-08-01T06:04:31;20.80;87.90
19232;DHT22;9750;48.730;10.294;2022-08-01T06:06:59;20.90;87.80
19232;DHT22;9750;48.730;10.294;2022-08-01T06:09:28;20.90;88.20
19232;DHT22;9750;48.730;10.294;2022-08-01T06:15:18;21.00;88.10
19232;DHT22;9750;48.730;10.294;2022-08-01T06:17:45;21.00;88.30
19232;DHT22;9750;48.730;10.294;2022-08-01T06:20:13;21.00;88.50
19232;DHT22;9750;48.730;10.294;2022-08-01T06:22:41;21.00;88.00
19232;DHT22;9750;48.730;10.294;2022-08-01T06:25:10;21.00;88.20
19232;DHT22;9750;48.730;10.294;2022-08-01T06:27:37;21.00;88.30
19232;DHT22;9750;48.730;10.294;2022-08-01T06:30:05;21.10;88.70
19232;DHT22;9750;48.730;10.294;2022-08-01T06:32:33;21.10;89.00
19232;DHT22;9750;48.730;10.294;2022-08-01T06:35:00;21.00;88.20
19232;DHT22;9750;48.730;10.294;2022-08-01T06:37:29;21.10;89.00
19232;DHT22;9750;48.730;10.294;2022-08-01T06:39:56;21.00;88.60
19232;DHT22;9750;48.730;10.294;2022-08-01T06:42:28;21.10;88.90
19232;DHT22;9750;48.730;10.294;2022-08-01T06:44:57;21.10;88.30
19232;DHT22;9750;48.730;10.294;2022-08-01T06:47:24;21.20;88.40
19232;DHT22;9750;48.730;10.294;2022-08-01T06:49:52;21.20;88.00
19232;DHT22;9750;48.730;10.294;2022-08-01T06:52:25;21.20;87.90
19232;DHT22;9750;48.730;10.294;2022-08-01T06:54:52;21.20;88.10
19232;DHT22;9750;48.730;10.294;2022-08-01T06:57:19;21.20;88.40
19232;DHT22;9750;48.730;10.294;2022-08-01T06:59:48;21.20;88.20
19232;DHT22;9750;48.730;10.294;2022-08-01T07:02:16;21.40;87.80
19232;DHT22;9750;48.730;10.294;2022-08-01T07:04:43;21.50;87.10
19232;DHT22;9750;48.730;10.294;2022-08-01T07:07:10;21.50;87.00
19232;DHT22;9750;48.730;10.294;2022-08-01T07:09:38;21.60;87.40
19232;DHT22;9750;48.730;10.294;2022-08-01T07:12:13;21.70;87.50
19232;DHT22;9750;48.730;10.294;2022-08-01T07:14:41;21.70;86.90
19232;DHT22;9750;48.730;10.294;2022-08-01T07:17:09;21.70;86.60
19232;DHT22;9750;48.730;10.294;2022-08-01T07:19:37;21.70;86.70
19232;DHT22;9750;48.730;10.294;2022-08-01T07:22:05;21.70;86.20
19232;DHT22;9750;48.730;10.294;2022-08-01T07:24:32;21.60;86.50
19232;DHT22;9750;48.730;10.294;2022-08-01T07:27:00;21.60;86.70
19232;DHT22;9750;48.730;10.294;2022-08-01T07:29:27;21.60;86.30
19232;DHT22;9750;48.730;10.294;2022-08-01T07:31:57;21.60;85.70
19232;DHT22;9750;48.730;10.294;2022-08-01T07:34:26;21.50;85.60
19232;DHT22;9750;48.730;10.294;2022-08-01T07:36:53;21.50;85.90
19232;DHT22;9750;48.730;10.294;2022-08-01T07:39:21;21.50;85.70
19232;DHT22;9750;48.730;10.294;2022-08-01T07:41:48;21.50;86.30
19232;DHT22;9750;48.730;10.294;2022-08-01T07:44:16;21.60;86.80
19232;DHT22;9750;48.730;10.294;2022-08-01T07:46:43;21.60;85.90
19232;DHT22;9750;48.730;10.294;2022-08-01T07:49:10;21.70;86.10
19232;DHT22;9750;48.730;10.294;2022-08-01T07:51:39;21.60;85.20
19232;DHT22;9750;48.730;10.294;2022-08-01T07:54:07;21.60;85.80
19232;DHT22;9750;48.730;10.294;2022-08-01T07:56:34;21.60;86.00
19232;DHT22;9750;48.730;10.294;2022-08-01T07:59:01;21.80;85.60
19232;DHT22;9750;48.730;10.294;2022-08-01T08:01:29;21.80;85.10
19232;DHT22;9750;48.730;10.294;2022-08-01T08:03:56;21.90;85.00
19232;DHT22;9750;48.730;10.294;2022-08-01T08:06:24;22.00;84.90
19232;DHT22;9750;48.730;10.294;2022-08-01T08:08:53;22.00;85.10
19232;DHT22;9750;48.730;10.294;2022-08-01T08:11:20;22.10;84.70
19232;DHT22;9750;48.730;10.294;2022-08-01T08:13:48;22.20;85.20
19232;DHT22;9750;48.730;10.294;2022-08-01T08:16:15;22.30;84.90
19232;DHT22;9750;48.730;10.294;2022-08-01T08:18:42;22.40;84.70
19232;DHT22;9750;48.730;10.294;2022-08-01T08:21:10;22.60;84.30
19232;DHT22;9750;48.730;10.294;2022-08-01T08:23:37;22.70;83.60
19232;DHT22;9750;48.730;10.294;2022-08-01T08:26:23;22.90;83.70
19232;DHT22;9750;48.730;10.294;2022-08-01T08:28:51;23.10;82.80
19232;DHT22;9750;48.730;10.294;2022-08-01T08:31:18;23.10;83.00
19232;DHT22;9750;48.730;10.294;2022-08-01T08:33:45;23.20;82.50
19232;DHT22;9750;48.730;10.294;2022-08-01T08:36:13;23.20;82.60
19232;DHT22;9750;48.730;10.294;2022-08-01T08:38:41;23.20;82.30
19232;DHT22;9750;48.730;10.294;2022-08-01T08:41:08;23.10;81.40
19232;DHT22;9750;48.730;10.294;2022-08-01T08:43:38;23.00;81.90
19232;DHT22;9750;48.730;10.294;2022-08-01T08:46:05;23.10;81.90
19232;DHT22;9750;48.730;10.294;2022-08-01T08:48:35;23.00;81.60
19232;DHT22;9750;48.730;10.294;2022-08-01T08:51:04;23.00;81.80
19232;DHT22;9750;48.730;10.294;2022-08-01T08:53:32;23.00;81.50
19232;DHT22;9750;48.730;10.294;2022-08-01T08:56:02;23.00;81.50
19232;DHT22;9750;48.730;10.294;2022-08-01T08:58:31;23.10;82.50
19232;DHT22;9750;48.730;10.294;2022-08-01T09:04:26;23.20;81.00
19232;DHT22;9750;48.730;10.294;2022-08-01T09:06:54;23.30;81.30
19232;DHT22;9750;48.730;10.294;2022-08-01T09:09:22;23.30;81.40
19232;DHT22;9750;48.730;10.294;2022-08-01T09:11:50;23.40;80.00
19232;DHT22;9750;48.730;10.294;2022-08-01T09:14:18;23.50;80.20
19232;DHT22;9750;48.730;10.294;2022-08-01T09:17:00;23.60;80.70
19232;DHT22;9750;48.730;10.294;2022-08-01T09:19:36;23.50;79.50
19232;DHT22;9750;48.730;10.294;2022-08-01T09:22:05;23.50;79.30
19232;DHT22;9750;48.730;10.294;2022-08-01T09:24:34;23.50;80.10
19232;DHT22;9750;48.730;10.294;2022-08-01T09:27:15;23.50;80.00
19232;DHT22;9750;48.730;10.294;2022-08-01T09:29:43;23.70;79.00
19232;DHT22;9750;48.730;10.294;2022-08-01T09:32:11;23.80;78.90
19232;DHT22;9750;48.730;10.294;2022-08-01T09:34:40;24.00;78.50
19232;DHT22;9750;48.730;10.294;2022-08-01T09:37:07;24.10;78.40
19232;DHT22;9750;48.730;10.294;2022-08-01T09:39:36;24.10;78.20
19232;DHT22;9750;48.730;10.294;2022-08-01T09:42:20;24.10;78.80
19232;DHT22;9750;48.730;10.294;2022-08-01T09:44:47;24.00;78.30
19232;DHT22;9750;48.730;10.294;2022-08-01T09:47:15;24.10;78.70
19232;DHT22;9750;48.730;10.294;2022-08-01T09:49:45;24.30;78.50
19232;DHT22;9750;48.730;10.294;2022-08-01T09:52:15;24.40;77.30
19232;DHT22;9750;48.730;10.294;2022-08-01T09:54:52;24.50;77.30
19232;DHT22;9750;48.730;10.294;2022-08-01T09:57:20;24.60;77.00
19232;DHT22;9750;48.730;10.294;2022-08-01T09:59:48;24.60;76.80
19232;DHT22;9750;48.730;10.294;2022-08-01T10:02:28;24.60;76.90
19232;DHT22;9750;48.730;10.294;2022-08-01T10:04:58;24.50;76.30
19232;DHT22;9750;48.730;10.294;2022-08-01T10:07:26;24.50;76.60
19232;DHT22;9750;48.730;10.294;2022-08-01T10:09:53;24.40;76.90
19232;DHT22;9750;48.730;10.294;2022-08-01T10:12:22;24.40;77.40
19232;DHT22;9750;48.730;10.294;2022-08-01T10:14:51;24.60;77.00
19232;DHT22;9750;48.730;10.294;2022-08-01T10:17:24;24.70;77.10
19232;DHT22;9750;48.730;10.294;2022-08-01T10:19:52;24.80;76.30
19232;DHT22;9750;48.730;10.294;2022-08-01T10:25:45;24.90;76.00
19232;DHT22;9750;48.730;10.294;2022-08-01T10:28:14;24.70;76.50
19232;DHT22;9750;48.730;10.294;2022-08-01T10:30:43;24.70;76.30
19232;DHT22;9750;48.730;10.294;2022-08-01T10:33:11;24.80;76.20
19232;DHT22;9750;48.730;10.294;2022-08-01T10:35:39;24.80;75.40
19232;DHT22;9750;48.730;10.294;2022-08-01T10:38:07;24.90;75.30
19232;DHT22;9750;48.730;10.294;2022-08-01T10:40:36;24.90;75.40
19232;DHT22;9750;48.730;10.294;2022-08-01T10:43:05;25.00;75.70
19232;DHT22;9750;48.730;10.294;2022-08-01T10:45:34;25.10;75.60
19232;DHT22;9750;48.730;10.294;2022-08-01T10:48:06;25.10;75.20
19232;DHT22;9750;48.730;10.294;2022-08-01T10:50:38;25.00;75.00
19232;DHT22;9750;48.730;10.294;2022-08-01T10:53:10;24.80;75.10
19232;DHT22;9750;48.730;10.294;2022-08-01T10:55:50;24.70;75.40
19232;DHT22;9750;48.730;10.294;2022-08-01T10:58:23;24.60;76.00
19232;DHT22;9750;48.730;10.294;2022-08-01T11:01:19;24.60;76.40
19232;DHT22;9750;48.730;10.294;2022-08-01T11:03:59;24.80;76.20
19232;DHT22;9750;48.730;10.294;2022-08-01T11:06:42;25.10;75.70
19232;DHT22;9750;48.730;10.294;2022-08-01T11:09:29;25.20;75.50
19232;DHT22;9750;48.730;10.294;2022-08-01T11:12:37;25.30;76.00
19232;DHT22;9750;48.730;10.294;2022-08-01T11:15:24;25.40;74.50
19232;DHT22;9750;48.730;10.294;2022-08-01T11:17:53;25.50;74.40
19232;DHT22;9750;48.730;10.294;2022-08-01T11:20:23;25.50;73.80
19232;DHT22;9750;48.730;10.294;2022-08-01T11:23:24;25.60;74.00
19232;DHT22;9750;48.730;10.294;2022-08-01T11:26:12;25.50;73.50
19232;DHT22;9750;48.730;10.294;2022-08-01T11:28:41;25.60;73.80
19232;DHT22;9750;48.730;10.294;2022-08-01T11:31:39;25.50;72.90
19232;DHT22;9750;48.730;10.294;2022-08-01T11:34:06;25.50;73.70
19232;DHT22;9750;48.730;10.294;2022-08-01T11:36:34;25.40;72.60
19232;DHT22;9750;48.730;10.294;2022-08-01T11:39:12;25.40;72.20
19232;DHT22;9750;48.730;10.294;2022-08-01T11:41:41;25.50;73.60
19232;DHT22;9750;48.730;10.294;2022-08-01T11:44:10;25.30;72.60
19232;DHT22;9750;48.730;10.294;2022-08-01T11:47:03;25.20;72.50
19232;DHT22;9750;48.730;10.294;2022-08-01T11:52:25;25.00;73.00
19232;DHT22;9750;48.730;10.294;2022-08-01T11:54:53;25.10;73.10
19232;DHT22;9750;48.730;10.294;2022-08-01T11:57:22;25.20;72.20
19232;DHT22;9750;48.730;10.294;2022-08-01T11:59:51;25.40;72.60
19232;DHT22;9750;48.730;10.294;2022-08-01T12:02:22;25.50;71.20
19232;DHT22;9750;48.730;10.294;2022-08-01T12:04:53;25.60;71.90
19232;DHT22;9750;48.730;10.294;2022-08-01T12:07:22;25.70;71.80
19232;DHT22;9750;48.730;10.294;2022-08-01T12:09:57;25.70;72.60
19232;DHT22;9750;48.730;10.294;2022-08-01T12:12:27;25.70;71.30
19232;DHT22;9750;48.730;10.294;2022-08-01T12:14:56;25.80;70.50
19232;DHT22;9750;48.730;10.294;2022-08-01T12:17:33;25.70;71.40
19232;DHT22;9750;48.730;10.294;2022-08-01T12:20:05;25.80;71.10
19232;DHT22;9750;48.730;10.294;2022-08-01T12:25:54;26.00;68.80
19232;DHT22;9750;48.730;10.294;2022-08-01T12:28:22;26.20;68.30
19232;DHT22;9750;48.730;10.294;2022-08-01T12:30:50;26.30;68.70
19232;DHT22;9750;48.730;10.294;2022-08-01T12:33:20;26.40;68.20
19232;DHT22;9750;48.730;10.294;2022-08-01T12:35:47;26.30;68.00
19232;DHT22;9750;48.730;10.294;2022-08-01T12:38:16;26.10;68.90
19232;DHT22;9750;48.730;10.294;2022-08-01T12:40:46;26.00;69.20
19232;DHT22;9750;48.730;10.294;2022-08-01T12:43:17;25.90;70.10
19232;DHT22;9750;48.730;10.294;2022-08-01T12:45:46;25.80;70.20
19232;DHT22;9750;48.730;10.294;2022-08-01T12:48:16;25.80;69.80
19232;DHT22;9750;48.730;10.294;2022-08-01T12:50:47;25.80;68.90
19232;DHT22;9750;48.730;10.294;2022-08-01T12:53:15;26.00;67.90
19232;DHT22;9750;48.730;10.294;2022-08-01T12:55:44;26.20;68.40
19232;DHT22;9750;48.730;10.294;2022-08-01T12:58:15;26.40;69.00
19232;DHT22;9750;48.730;10.294;2022-08-01T13:00:44;26.60;68.30
19232;DHT22;9750;48.730;10.294;2022-08-01T13:03:13;26.60;67.10
19232;DHT22;9750;48.730;10.294;2022-08-01T13:05:43;26.40;67.00
19232;DHT22;9750;48.730;10.294;2022-08-01T13:08:13;26.30;67.10
19232;DHT22;9750;48.730;10.294;2022-08-01T13:10:41;26.10;67.20
19232;DHT22;9750;48.730;10.294;2022-08-01T13:16:20;26.00;68.30
19232;DHT22;9750;48.730;10.294;2022-08-01T13:18:49;25.90;68.60
19232;DHT22;9750;48.730;10.294;2022-08-01T13:21:18;25.80;68.70
19232;DHT22;9750;48.730;10.294;2022-08-01T13:24:03;25.80;68.70
19232;DHT22;9750;48.730;10.294;2022-08-01T13:26:41;25.90;69.50
19232;DHT22;9750;48.730;10.294;2022-08-01T13:29:10;25.90;68.90
19232;DHT22;9750;48.730;10.294;2022-08-01T13:31:38;26.00;68.30
19232;DHT22;9750;48.730;10.294;2022-08-01T13:34:06;26.10;68.40
19232;DHT22;9750;48.730;10.294;2022-08-01T13:36:34;26.20;69.00
19232;DHT22;9750;48.730;10.294;2022-08-01T13:39:04;26.30;68.80
19232;DHT22;9750;48.730;10.294;2022-08-01T13:41:49;26.30;67.60
19232;DHT22;9750;48.730;10.294;2022-08-01T13:44:16;26.40;67.50
19232;DHT22;9750;48.730;10.294;2022-08-01T13:46:44;26.60;67.50
19232;DHT22;9750;48.730;10.294;2022-08-01T13:49:13;26.60;66.90
19232;DHT22;9750;48.730;10.294;2022-08-01T13:51:40;26.50;67.50
19232;DHT22;9750;48.730;10.294;2022-08-01T13:54:09;26.50;68.40
19232;DHT22;9750;48.730;10.294;2022-08-01T13:56:36;26.40;67.70
19232;DHT22;9750;48.730;10.294;2022-08-01T13:59:04;26.30;66.80
19232;DHT22;9750;48.730;10.294;2022-08-01T14:01:32;26.30;67.80
19232;DHT22;9750;48.730;10.294;2022-08-01T14:03:59;26.20;68.10
19232;DHT22;9750;48.730;10.294;2022-08-01T14:06:27;26.20;68.30
19232;DHT22;9750;48.730;10.294;2022-08-01T14:08:54;26.30;68.50
19232;DHT22;9750;48.730;10.294;2022-08-01T14:11:23;26.30;68.30
19232;DHT22;9750;48.730;10.294;2022-08-01T14:13:51;26.40;68.10
19232;DHT22;9750;48.730;10.294;2022-08-01T14:16:18;26.40;68.00
19232;DHT22;9750;48.730;10.294;2022-08-01T14:18:46;26.50;67.70
19232;DHT22;9750;48.730;10.294;2022-08-01T14:21:13;26.60;67.20
19232;DHT22;9750;48.730;10.294;2022-08-01T14:23:41;26.70;68.00
19232;DHT22;9750;48.730;10.294;2022-08-01T14:26:08;26.80;67.20
19232;DHT22;9750;48.730;10.294;2022-08-01T14:28:37;26.80;68.10
19232;DHT22;9750;48.730;10.294;2022-08-01T14:31:05;27.00;67.80
19232;DHT22;9750;48.730;10.294;2022-08-01T14:33:33;27.10;67.20
19232;DHT22;9750;48.730;10.294;2022-08-01T14:36:00;27.20;66.50
19232;DHT22;9750;48.730;10.294;2022-08-01T14:38:28;27.20;66.00
19232;DHT22;9750;48.730;10.294;2022-08-01T14:40:55;27.20;65.80
19232;DHT22;9750;48.730;10.294;2022-08-01T14:43:22;27.20;65.50
19232;DHT22;9750;48.730;10.294;2022-08-01T14:45:52;27.20;65.60
19232;DHT22;9750;48.730;10.294;2022-08-01T14:48:20;27.10;65.30
19232;DHT22;9750;48.730;10.294;2022-08-01T14:50:48;27.20;65.20
19232;DHT22;9750;48.730;10.294;2022-08-01T14:53:16;27.20;65.00
19232;DHT22;9750;48.730;10.294;2022-08-01T14:55:44;27.20;65.20
19232;DHT22;9750;48.730;10.294;2022-08-01T14:58:11;27.20;65.00
19232;DHT22;9750;48.730;10.294;2022-08-01T15:00:38;27.20;65.10
19232;DHT22;9750;48.730;10.294;2022-08-01T15:03:07;27.30;65.50
19232;DHT22;9750;48.730;10.294;2022-08-01T15:05:34;27.40;64.40
19232;DHT22;9750;48.730;10.294;2022-08-01T15:08:02;27.60;65.00
19232;DHT22;9750;48.730;10.294;2022-08-01T15:10:30;27.70;64.10
19232;DHT22;9750;48.730;10.294;2022-08-01T15:12:58;27.60;63.80
19232;DHT22;9750;48.730;10.294;2022-08-01T15:15:27;27.50;64.20
19232;DHT22;9750;48.730;10.294;2022-08-01T15:17:54;27.50;64.30
19232;DHT22;9750;48.730;10.294;2022-08-01T15:20:23;27.60;63.90
19232;DHT22;9750;48.730;10.294;2022-08-01T15:22:52;27.70;64.20
19232;DHT22;9750;48.730;10.294;2022-08-01T15:25:20;27.70;63.50
19232;DHT22;9750;48.730;10.294;2022-08-01T15:27:47;27.60;63.80
19232;DHT22;9750;48.730;10.294;2022-08-01T15:30:15;27.70;64.80
19232;DHT22;9750;48.730;10.294;2022-08-01T15:32:43;27.90;63.90
19232;DHT22;9750;48.730;10.294;2022-08-01T15:35:19;27.80;63.70
19232;DHT22;9750;48.730;10.294;2022-08-01T15:37:48;27.70;63.90
19232;DHT22;9750;48.730;10.294;2022-08-01T15:40:15;27.90;63.60
19232;DHT22;9750;48.730;10.294;2022-08-01T15:42:43;28.00;63.10
19232;DHT22;9750;48.730;10.294;2022-08-01T15:45:11;28.00;63.50
19232;DHT22;9750;48.730;10.294;2022-08-01T15:47:42;28.00;63.40
19232;DHT22;9750;48.730;10.294;2022-08-01T15:50:09;27.90;62.40
19232;DHT22;9750;48.730;10.294;2022-08-01T15:52:37;27.70;62.80
19232;DHT22;9750;48.730;10.294;2022-08-01T15:55:07;27.50;63.50
19232;DHT22;9750;48.730;10.294;2022-08-01T15:57:34;27.50;63.60
19232;DHT22;9750;48.730;10.294;2022-08-01T16:00:03;27.60;63.60
19232;DHT22;9750;48.730;10.294;2022-08-01T16:02:30;27.60;63.60
19232;DHT22;9750;48.730;10.294;2022-08-01T16:04:58;27.40;63.90
19232;DHT22;9750;48.730;10.294;2022-08-01T16:07:25;27.40;63.90